createdAt,value
2018-03-14T00:01:56.238Z,31.67
2018-03-14T00:04:25.341Z,27.30
2018-03-14T00:06:54.499Z,21.48
2018-03-14T00:09:23.583Z,22.20
2018-03-14T00:11:52.678Z,29.67
2018-03-14T00:14:21.786Z,22.30
2018-03-14T00:16:50.874Z,23.40
2018-03-14T00:19:20.769Z,24.15
2018-03-14T00:21:49.867Z,26.12
2018-03-14T00:24:18.966Z,18.50
2018-03-14T00:26:48.065Z,21.50
2018-03-14T00:29:17.203Z,19.85
2018-03-14T00:31:46.273Z,17.10
2018-03-14T00:34:15.365Z,17.33
2018-03-14T00:36:44.517Z,22.00
2018-03-14T00:39:13.610Z,21.40
2018-03-14T00:41:42.837Z,23.77
2018-03-14T00:44:11.941Z,22.37
2018-03-14T00:46:41.029Z,21.80
2018-03-14T00:49:10.121Z,24.75
2018-03-14T00:51:39.974Z,27.02
2018-03-14T00:54:09.066Z,23.98
2018-03-14T00:56:38.190Z,23.52
2018-03-14T00:59:07.277Z,22.23
2018-03-14T01:01:37.269Z,23.52
2018-03-14T01:04:06.362Z,21.20
2018-03-14T01:06:35.454Z,21.58
2018-03-14T01:09:04.606Z,24.45
2018-03-14T01:11:33.693Z,23.55
2018-03-14T01:14:02.786Z,23.65
2018-03-14T01:16:31.897Z,23.45
2018-03-14T01:19:00.990Z,23.02
2018-03-14T01:21:30.961Z,22.85
2018-03-14T01:24:00.052Z,23.98
2018-03-14T01:26:29.150Z,26.17
2018-03-14T01:28:58.243Z,23.48
2018-03-14T01:31:28.224Z,22.25
2018-03-14T01:33:57.346Z,22.67
2018-03-14T01:36:26.430Z,23.52
2018-03-14T01:38:55.521Z,24.00
2018-03-14T01:41:24.861Z,17.65
2018-03-14T01:43:54.117Z,21.80
2018-03-14T01:46:23.209Z,20.12
2018-03-14T01:48:52.298Z,23.33
2018-03-14T01:51:22.138Z,19.87
2018-03-14T01:53:51.237Z,22.27
2018-03-14T01:56:20.337Z,18.40
2018-03-14T01:58:49.477Z,18.25
2018-03-14T02:01:18.565Z,20.37
2018-03-14T02:03:47.711Z,21.70
2018-03-14T02:06:16.802Z,19.95
2018-03-14T02:08:45.926Z,19.52
2018-03-14T02:11:15.006Z,19.87
2018-03-14T02:13:44.103Z,20.05
2018-03-14T02:16:13.200Z,17.75
2018-03-14T02:18:42.285Z,22.33
2018-03-14T02:21:11.452Z,22.58
2018-03-14T02:23:41.262Z,17.20
2018-03-14T02:26:10.389Z,15.80
2018-03-14T02:28:39.477Z,18.42
2018-03-14T02:31:08.618Z,15.35
2018-03-14T02:33:37.709Z,16.23
2018-03-14T02:36:06.802Z,15.38
2018-03-14T02:38:36.645Z,12.63
2018-03-14T02:41:05.731Z,15.50
2018-03-14T02:43:34.849Z,14.85
2018-03-14T02:46:04.749Z,13.65
2018-03-14T02:48:33.824Z,12.93
2018-03-14T02:51:02.895Z,11.85
2018-03-14T02:53:33.405Z,13.30
2018-03-14T02:56:02.482Z,14.80
2018-03-14T02:58:31.550Z,10.65
2018-03-14T03:01:00.641Z,15.25
2018-03-14T03:03:29.713Z,14.32
2018-03-14T03:05:58.929Z,12.37
2018-03-14T03:08:27.995Z,13.77
2018-03-14T03:10:57.062Z,16.85
2018-03-14T03:13:26.130Z,13.90
2018-03-14T03:15:55.985Z,13.32
2018-03-14T03:18:25.052Z,11.88
2018-03-14T03:20:54.309Z,10.95
2018-03-14T03:23:23.369Z,16.05
2018-03-14T03:25:52.473Z,11.07
2018-03-14T03:28:21.537Z,13.62
2018-03-14T03:30:50.603Z,11.82
2018-03-14T03:33:19.672Z,12.65
2018-03-14T03:35:48.802Z,15.43
2018-03-14T03:38:17.872Z,10.38
2018-03-14T03:40:46.940Z,12.80
2018-03-14T03:43:16.001Z,12.70
2018-03-14T03:45:45.078Z,18.42
2018-03-14T03:48:14.149Z,10.57
2018-03-14T03:50:43.214Z,9.80
2018-03-14T03:53:12.329Z,11.52
2018-03-14T03:55:41.394Z,10.70
2018-03-14T03:58:10.530Z,13.23
2018-03-14T04:00:40.409Z,13.05
2018-03-14T04:03:09.449Z,12.43
2018-03-14T04:05:38.513Z,12.88
2018-03-14T04:08:07.621Z,10.52
2018-03-14T04:10:36.709Z,13.85
2018-03-14T04:13:05.789Z,11.20
2018-03-14T04:15:34.917Z,12.10
2018-03-14T04:18:04.751Z,14.93
2018-03-14T04:20:33.818Z,14.05
2018-03-14T04:23:02.887Z,12.77
2018-03-14T04:25:31.945Z,17.83
2018-03-14T04:28:01.006Z,11.02
2018-03-14T04:30:30.117Z,12.75
2018-03-14T04:32:59.177Z,12.27
2018-03-14T04:35:28.244Z,10.38
2018-03-14T04:37:57.306Z,13.73
2018-03-14T04:40:26.374Z,12.45
2018-03-14T04:42:55.461Z,10.55
2018-03-14T04:45:24.521Z,10.00
2018-03-14T04:47:53.652Z,11.73
2018-03-14T04:50:23.490Z,9.95
2018-03-14T04:52:53.345Z,11.02
2018-03-14T04:55:22.409Z,8.57
2018-03-14T04:57:51.506Z,9.88
2018-03-14T05:00:20.618Z,9.32
2018-03-14T05:02:49.682Z,12.52
2018-03-14T05:05:18.800Z,16.27
2018-03-14T05:07:47.869Z,14.00
2018-03-14T05:10:17.737Z,9.65
2018-03-14T05:12:46.797Z,11.77
2018-03-14T05:15:15.879Z,9.20
2018-03-14T05:17:44.937Z,14.20
2018-03-14T05:20:14.103Z,11.43
2018-03-14T05:22:43.181Z,8.38
2018-03-14T05:25:12.242Z,9.80
2018-03-14T05:27:41.438Z,10.43
2018-03-14T05:30:10.498Z,7.22
2018-03-14T05:32:39.736Z,8.07
2018-03-14T05:35:08.797Z,9.75
2018-03-14T05:37:37.854Z,9.48
2018-03-14T05:40:06.911Z,7.47
2018-03-14T05:42:36.043Z,8.02
2018-03-14T05:45:05.910Z,12.50
2018-03-14T05:47:34.978Z,11.32
2018-03-14T05:50:04.805Z,11.80
2018-03-14T05:52:34.683Z,8.55
2018-03-14T05:55:03.750Z,9.63
2018-03-14T05:57:32.827Z,8.85
2018-03-14T06:00:01.889Z,7.75
2018-03-14T06:02:30.951Z,7.78
2018-03-14T06:05:00.012Z,9.90
2018-03-14T06:07:29.122Z,16.15
2018-03-14T06:09:58.186Z,7.97
2018-03-14T06:12:28.042Z,8.65
2018-03-14T06:14:57.155Z,11.75
2018-03-14T06:17:26.209Z,9.18
2018-03-14T06:19:55.282Z,9.60
2018-03-14T06:22:24.342Z,8.27
2018-03-14T06:24:53.605Z,8.40
2018-03-14T06:27:23.443Z,12.02
2018-03-14T06:29:52.558Z,11.57
2018-03-14T06:32:21.589Z,12.80
2018-03-14T06:34:50.646Z,9.55
2018-03-14T06:37:19.705Z,8.25
2018-03-14T06:39:48.773Z,11.50
2018-03-14T06:42:17.892Z,9.15
2018-03-14T06:44:47.762Z,10.77
2018-03-14T06:47:16.893Z,10.73
2018-03-14T06:49:46.723Z,11.50
2018-03-14T06:52:16.696Z,12.25
2018-03-14T06:54:45.805Z,11.30
2018-03-14T06:57:14.898Z,11.68
2018-03-14T07:06:17.410Z,9.20
2018-03-14T07:08:46.695Z,8.13
2018-03-14T07:11:15.797Z,9.63
2018-03-14T07:13:44.853Z,9.65
2018-03-14T07:16:13.918Z,10.80
2018-03-14T07:18:43.051Z,14.45
2018-03-14T07:21:12.109Z,10.20
2018-03-14T07:23:41.934Z,9.10
2018-03-14T07:26:11.771Z,12.73
2018-03-14T07:28:41.610Z,9.25
2018-03-14T07:31:10.710Z,10.98
2018-03-14T07:33:40.542Z,12.90
2018-03-14T07:36:10.370Z,8.63
2018-03-14T07:38:40.197Z,11.52
2018-03-14T07:41:10.022Z,11.65
2018-03-14T07:43:39.877Z,9.15
2018-03-14T07:46:08.946Z,13.48
2018-03-14T07:48:38.842Z,15.27
2018-03-14T07:51:07.902Z,9.75
2018-03-14T07:53:37.728Z,12.75
2018-03-14T07:56:06.839Z,15.35
2018-03-14T07:58:36.670Z,10.65
2018-03-14T08:01:05.735Z,13.52
2018-03-14T08:03:34.862Z,19.12
2018-03-14T08:06:03.985Z,13.43
2018-03-14T08:08:33.813Z,10.55
2018-03-14T08:11:03.783Z,17.35
2018-03-14T08:13:32.930Z,18.52
2018-03-14T08:16:01.954Z,15.90
2018-03-14T08:18:31.026Z,12.77
2018-03-14T08:21:00.098Z,17.23
2018-03-14T08:23:29.190Z,14.40
2018-03-14T08:25:59.029Z,16.15
2018-03-14T08:28:28.861Z,17.15
2018-03-14T08:30:57.921Z,14.87
2018-03-14T08:33:27.045Z,15.02
2018-03-14T08:35:56.521Z,17.42
2018-03-14T08:38:25.610Z,14.38
2018-03-14T08:40:54.681Z,13.23
2018-03-14T08:43:23.754Z,18.33
2018-03-14T08:45:52.822Z,14.85
2018-03-14T08:48:22.709Z,13.75
2018-03-14T08:50:51.797Z,12.45
2018-03-14T08:53:20.867Z,20.25
2018-03-14T08:55:50.773Z,19.37
2018-03-14T08:58:19.878Z,18.80
2018-03-14T09:00:48.950Z,18.90
2018-03-14T09:03:18.078Z,20.05
2018-03-14T09:05:47.150Z,16.52
2018-03-14T09:08:17.038Z,23.00
2018-03-14T09:10:46.153Z,27.92
2018-03-14T09:13:15.221Z,21.98
2018-03-14T09:15:44.360Z,23.87
2018-03-14T09:18:13.430Z,29.48
2018-03-14T09:20:42.501Z,20.02
2018-03-14T09:23:11.573Z,26.05
2018-03-14T09:25:40.646Z,21.90
2018-03-14T09:28:10.487Z,20.23
2018-03-14T09:30:39.565Z,21.10
2018-03-14T09:33:09.477Z,21.40
2018-03-14T09:35:38.554Z,21.87
2018-03-14T09:38:07.634Z,23.75
2018-03-14T09:40:37.474Z,22.08
2018-03-14T09:43:06.551Z,17.90
2018-03-14T09:45:35.659Z,15.80
2018-03-14T09:48:04.801Z,18.55
2018-03-14T09:50:33.865Z,14.15
2018-03-14T09:53:02.939Z,16.48
2018-03-14T09:55:32.009Z,13.57
2018-03-14T09:58:01.952Z,18.12
2018-03-14T10:00:30.991Z,19.23
2018-03-14T10:03:00.065Z,16.30
2018-03-14T10:05:29.941Z,16.02
2018-03-14T10:07:59.001Z,14.75
2018-03-14T10:10:29.010Z,22.20
2018-03-14T10:12:58.078Z,17.42
2018-03-14T10:15:27.209Z,13.38
2018-03-14T10:17:56.348Z,13.90
2018-03-14T10:20:25.418Z,12.63
2018-03-14T10:22:54.486Z,13.57
2018-03-14T10:25:24.332Z,12.90
2018-03-14T10:27:53.410Z,14.15
2018-03-14T10:30:22.558Z,16.20
2018-03-14T10:32:52.397Z,15.75
2018-03-14T10:35:21.502Z,17.65
2018-03-14T10:37:50.602Z,23.02
2018-03-14T10:40:19.669Z,20.05
2018-03-14T10:42:48.810Z,21.83
2018-03-14T10:45:18.641Z,16.67
2018-03-14T10:47:47.715Z,13.18
2018-03-14T10:50:16.838Z,12.73
2018-03-14T10:52:46.670Z,13.50
2018-03-14T10:55:16.503Z,11.38
2018-03-14T10:57:46.362Z,14.73
2018-03-14T11:03:18.758Z,17.23
2018-03-14T11:05:48.663Z,20.80
2018-03-14T11:08:17.734Z,17.98
2018-03-14T11:10:46.834Z,16.58
2018-03-14T11:13:15.901Z,15.45
2018-03-14T11:15:45.165Z,18.45
2018-03-14T11:18:14.361Z,15.20
2018-03-14T11:20:43.501Z,14.23
2018-03-14T11:23:12.566Z,13.25
2018-03-14T11:25:42.406Z,15.88
2018-03-14T11:28:11.469Z,25.65
2018-03-14T11:30:40.539Z,15.15
2018-03-14T11:33:09.633Z,17.73
2018-03-14T11:35:39.470Z,15.75
2018-03-14T11:38:08.593Z,18.48
2018-03-14T11:40:37.701Z,14.75
2018-03-14T11:43:06.967Z,19.05
2018-03-14T11:45:36.042Z,20.37
2018-03-14T11:48:05.112Z,16.08
2018-03-14T11:50:34.954Z,20.88
2018-03-14T11:53:04.028Z,22.02
2018-03-14T11:55:33.166Z,19.20
2018-03-14T11:58:02.247Z,14.00
2018-03-14T12:00:31.314Z,17.55
2018-03-14T12:03:00.387Z,14.52
2018-03-14T12:05:30.221Z,11.55
2018-03-14T12:07:59.290Z,8.73
2018-03-14T12:10:28.450Z,9.30
2018-03-14T12:12:57.510Z,9.20
2018-03-14T12:15:26.570Z,9.98
2018-03-14T12:17:55.629Z,9.90
2018-03-14T12:20:24.714Z,8.68
2018-03-14T12:22:53.774Z,10.70
2018-03-14T12:25:23.685Z,12.57
2018-03-14T12:27:52.755Z,9.80
2018-03-14T12:30:21.825Z,15.85
2018-03-14T12:32:51.730Z,16.02
2018-03-14T12:35:20.805Z,21.48
2018-03-14T12:37:49.873Z,26.10
2018-03-14T12:40:19.709Z,16.70
2018-03-14T12:42:49.617Z,17.65
2018-03-14T12:45:19.456Z,23.75
2018-03-14T12:47:49.292Z,16.80
2018-03-14T12:50:19.129Z,16.27
2018-03-14T12:52:48.248Z,24.27
2018-03-14T12:55:17.343Z,17.02
2018-03-14T12:57:47.290Z,15.77
2018-03-14T13:00:16.367Z,18.77
2018-03-14T13:02:46.201Z,20.77
2018-03-14T13:05:15.330Z,20.02
2018-03-14T13:07:44.450Z,17.58
2018-03-14T13:10:13.520Z,17.60
2018-03-14T13:12:42.585Z,17.67
2018-03-14T13:15:11.705Z,17.17
2018-03-14T13:17:40.770Z,19.00
2018-03-14T13:20:10.620Z,19.48
2018-03-14T13:22:39.730Z,23.73
2018-03-14T13:25:08.796Z,21.48
2018-03-14T13:27:37.869Z,21.20
2018-03-14T13:30:06.933Z,19.65
2018-03-14T13:32:36.882Z,18.30
2018-03-14T13:35:06.098Z,27.02
2018-03-14T13:37:35.170Z,15.93
2018-03-14T13:40:04.279Z,20.02
2018-03-14T13:42:33.342Z,22.95
2018-03-14T13:45:02.487Z,20.90
2018-03-14T13:47:31.661Z,19.42
2018-03-14T13:50:00.763Z,21.40
2018-03-14T13:52:29.838Z,20.20
2018-03-14T13:54:59.713Z,23.10
2018-03-14T13:57:28.783Z,22.08
2018-03-14T13:59:58.737Z,18.73
2018-03-14T14:02:27.870Z,17.77
2018-03-14T14:04:56.938Z,17.40
2018-03-14T14:07:26.834Z,21.40
2018-03-14T14:09:55.901Z,23.38
2018-03-14T14:12:25.013Z,24.15
2018-03-14T14:14:54.081Z,20.02
2018-03-14T14:17:23.924Z,17.10
2018-03-14T14:19:53.789Z,18.27
2018-03-14T14:22:22.885Z,21.73
2018-03-14T14:24:51.960Z,22.35
2018-03-14T14:27:21.822Z,19.30
2018-03-14T14:29:50.946Z,14.18
2018-03-14T14:32:20.015Z,16.58
2018-03-14T14:34:49.848Z,14.82
2018-03-14T14:37:19.683Z,17.23
2018-03-14T14:39:48.800Z,16.02
2018-03-14T14:42:17.866Z,19.50
2018-03-14T14:44:46.986Z,14.65
2018-03-14T14:47:16.059Z,21.42
2018-03-14T14:49:45.130Z,19.67
2018-03-14T14:52:15.002Z,12.18
2018-03-14T14:54:44.202Z,14.87
2018-03-14T14:57:13.278Z,14.90
2018-03-14T14:59:43.109Z,18.15
2018-03-14T15:02:12.965Z,12.90
2018-03-14T15:04:42.062Z,17.37
2018-03-14T15:07:11.186Z,12.90
2018-03-14T15:09:40.249Z,13.98
2018-03-14T15:12:09.390Z,9.73
2018-03-14T15:14:38.454Z,11.50
2018-03-14T15:17:07.515Z,9.38
2018-03-14T15:19:36.575Z,7.68
2018-03-14T15:22:05.630Z,8.23
2018-03-14T15:24:34.698Z,14.32
2018-03-14T15:27:03.798Z,10.38
2018-03-14T15:29:32.947Z,12.52
2018-03-14T15:32:02.778Z,11.52
2018-03-14T15:34:32.606Z,7.57
2018-03-14T15:37:02.430Z,6.50
2018-03-14T15:39:32.257Z,14.40
2018-03-14T15:42:02.094Z,7.60
2018-03-14T15:44:31.153Z,7.85
2018-03-14T15:47:00.218Z,16.02
2018-03-14T15:49:29.278Z,7.25
2018-03-14T15:51:58.334Z,7.68
2018-03-14T15:54:27.395Z,10.02
2018-03-14T15:56:57.226Z,9.63
2018-03-14T15:59:26.358Z,10.00
2018-03-14T16:01:56.219Z,10.63
2018-03-14T16:04:25.278Z,7.12
2018-03-14T16:06:54.338Z,7.60
2018-03-14T16:09:23.434Z,9.05
2018-03-14T16:11:53.261Z,11.20
2018-03-14T16:14:22.322Z,7.90
2018-03-14T16:16:51.409Z,8.60
2018-03-14T16:19:20.465Z,8.93
2018-03-14T16:21:49.525Z,8.70
2018-03-14T16:24:18.642Z,12.35
2018-03-14T16:26:47.713Z,9.10
2018-03-14T16:29:17.538Z,10.00
2018-03-14T16:31:47.374Z,11.90
2018-03-14T16:34:16.442Z,10.63
2018-03-14T16:36:46.301Z,28.52
2018-03-14T16:39:16.130Z,12.43
2018-03-14T16:41:45.987Z,11.95
2018-03-14T16:44:15.054Z,12.10
2018-03-14T16:46:45.025Z,11.70
2018-03-14T16:49:14.107Z,11.73
2018-03-14T16:51:43.942Z,16.65
2018-03-14T16:54:13.930Z,10.57
2018-03-14T16:56:42.993Z,13.13
2018-03-14T16:59:12.053Z,10.40
2018-03-14T17:01:41.121Z,10.07
2018-03-14T17:04:10.265Z,10.45
2018-03-14T17:06:39.330Z,17.73
2018-03-14T17:09:08.390Z,9.70
2018-03-14T17:11:37.453Z,10.23
2018-03-14T17:14:06.565Z,12.25
2018-03-14T17:16:35.625Z,21.73
2018-03-14T17:19:04.757Z,13.00
2018-03-14T17:21:34.588Z,14.23
2018-03-14T17:24:04.650Z,14.63
2018-03-14T17:26:33.776Z,15.55
2018-03-14T17:29:02.967Z,16.60
2018-03-14T17:31:32.088Z,14.98
2018-03-14T17:34:01.194Z,11.30
2018-03-14T17:36:30.262Z,13.60
2018-03-14T17:39:00.093Z,15.02
2018-03-14T17:41:29.166Z,14.48
2018-03-14T17:43:58.236Z,19.65
2018-03-14T17:46:27.326Z,19.75
2018-03-14T17:48:57.200Z,21.75
2018-03-14T17:51:26.318Z,16.23
2018-03-14T17:53:55.511Z,15.30
2018-03-14T17:56:24.579Z,15.00
2018-03-14T17:58:53.654Z,16.77
2018-03-14T18:01:22.750Z,16.08
2018-03-14T18:03:51.817Z,16.00
2018-03-14T18:06:21.676Z,16.52
2018-03-14T18:08:50.746Z,20.42
2018-03-14T18:11:20.626Z,18.10
2018-03-14T18:13:49.703Z,17.60
2018-03-14T18:16:19.543Z,13.35
2018-03-14T18:18:48.688Z,16.80
2018-03-14T18:21:17.762Z,18.25
2018-03-14T18:23:46.830Z,17.77
2018-03-14T18:26:15.994Z,19.20
2018-03-14T18:28:45.061Z,16.80
2018-03-14T18:31:14.125Z,20.77
2018-03-14T18:33:43.195Z,22.17
2018-03-14T18:36:13.051Z,19.87
2018-03-14T18:38:42.121Z,24.75
2018-03-14T18:41:11.999Z,22.05
2018-03-14T18:43:41.071Z,32.70
2018-03-14T18:46:10.905Z,25.25
2018-03-14T18:48:40.742Z,28.95
2018-03-14T18:51:09.823Z,30.37
2018-03-14T18:53:38.966Z,33.70
2018-03-14T18:56:08.098Z,40.60
2018-03-14T18:58:37.166Z,32.08
2018-03-14T19:01:06.998Z,30.17
2018-03-14T19:03:36.829Z,32.05
2018-03-14T19:06:06.661Z,27.23
2018-03-14T19:08:35.737Z,27.90
2018-03-14T19:11:04.842Z,24.58
2018-03-14T19:13:33.925Z,23.20
2018-03-14T19:16:03.026Z,27.02
2018-03-14T19:18:32.098Z,26.52
2018-03-14T19:21:02.157Z,24.98
2018-03-14T19:23:31.257Z,38.95
2018-03-14T19:26:00.330Z,33.40
2018-03-14T19:28:29.547Z,22.85
2018-03-14T19:30:58.622Z,23.12
2018-03-14T19:33:27.722Z,22.92
2018-03-14T19:35:56.795Z,25.88
2018-03-14T19:38:26.629Z,29.17
2018-03-14T19:40:56.493Z,32.60
2018-03-14T19:43:25.626Z,29.70
2018-03-14T19:45:54.695Z,26.17
2018-03-14T19:48:23.883Z,21.55
2018-03-14T19:50:53.827Z,24.10
2018-03-14T19:53:22.953Z,21.17
2018-03-14T19:55:52.090Z,21.87
2018-03-14T19:58:21.155Z,19.50
2018-03-14T20:00:50.222Z,18.33
2018-03-14T20:03:20.850Z,20.90
2018-03-14T20:05:49.922Z,20.27
2018-03-14T20:08:18.998Z,19.75
2018-03-14T20:10:49.584Z,19.15
2018-03-14T20:13:18.659Z,17.65
2018-03-14T20:15:47.887Z,15.73
2018-03-14T20:18:16.974Z,19.48
2018-03-14T20:20:46.052Z,14.63
2018-03-14T20:23:15.123Z,17.02
2018-03-14T20:25:44.963Z,17.42
2018-03-14T20:28:14.043Z,15.90
2018-03-14T20:30:43.880Z,16.35
2018-03-14T20:33:14.139Z,19.40
2018-03-14T20:35:43.223Z,16.52
2018-03-14T20:38:13.067Z,17.48
2018-03-14T20:40:42.144Z,16.60
2018-03-14T20:43:11.222Z,16.52
2018-03-14T20:45:40.295Z,26.00
2018-03-14T20:48:09.418Z,26.25
2018-03-14T20:50:38.533Z,21.23
2018-03-14T20:53:07.644Z,19.98
2018-03-14T20:55:36.722Z,34.05
2018-03-14T20:58:06.602Z,19.23
2018-03-14T21:00:35.693Z,25.52
2018-03-14T21:03:04.762Z,18.40
2018-03-14T21:05:33.833Z,26.52
2018-03-14T21:08:03.137Z,29.65
2018-03-14T21:10:32.202Z,27.95
2018-03-14T21:13:02.037Z,26.67
2018-03-14T21:15:31.892Z,21.95
2018-03-14T21:18:00.994Z,35.97
2018-03-14T21:20:30.070Z,27.15
2018-03-14T21:22:59.935Z,30.02
2018-03-14T21:25:29.086Z,25.02
2018-03-14T21:27:58.154Z,29.37
2018-03-14T21:30:27.426Z,25.88
2018-03-14T21:32:56.547Z,24.45
2018-03-14T21:35:25.614Z,26.05
2018-03-14T21:37:54.694Z,27.30
2018-03-14T21:40:24.538Z,27.55
2018-03-14T21:42:53.667Z,22.37
2018-03-14T21:45:22.751Z,20.77
2018-03-14T21:47:51.829Z,27.23
2018-03-14T21:50:21.731Z,21.55
2018-03-14T21:52:50.830Z,22.60
2018-03-14T21:55:31.989Z,21.83
2018-03-14T21:58:01.876Z,22.98
2018-03-14T22:00:30.945Z,20.27
2018-03-14T22:03:00.662Z,25.75
2018-03-14T22:05:29.825Z,22.45
2018-03-14T22:07:58.899Z,24.65
2018-03-14T22:10:28.156Z,30.15
2018-03-14T22:12:57.259Z,29.45
2018-03-14T22:15:26.383Z,46.25
2018-03-14T22:17:55.454Z,31.37
2018-03-14T22:20:24.542Z,30.25
2018-03-14T22:22:53.615Z,46.22
2018-03-14T22:25:22.741Z,33.35
2018-03-14T22:27:52.578Z,30.48
2018-03-14T22:30:22.469Z,31.48
2018-03-14T22:32:53.049Z,25.05
2018-03-14T22:35:22.881Z,29.15
2018-03-14T22:37:52.718Z,23.85
2018-03-14T22:40:21.793Z,25.10
2018-03-14T22:42:51.630Z,22.15
2018-03-14T22:45:21.465Z,17.85
2018-03-14T22:47:51.309Z,22.77
2018-03-14T22:50:20.387Z,23.33
2018-03-14T22:52:49.462Z,26.45
2018-03-14T22:55:18.574Z,33.90
2018-03-14T22:57:47.676Z,25.67
2018-03-14T23:00:16.798Z,22.30
2018-03-14T23:02:45.909Z,21.83
2018-03-14T23:05:14.978Z,23.10
2018-03-14T23:07:44.098Z,23.80
2018-03-14T23:10:13.165Z,23.17
2018-03-14T23:12:42.233Z,29.63
2018-03-14T23:15:11.306Z,25.35
2018-03-14T23:17:41.141Z,25.48
2018-03-14T23:20:10.269Z,27.25
2018-03-14T23:22:39.376Z,23.17
2018-03-14T23:25:08.447Z,26.27
2018-03-14T23:27:37.521Z,20.80
2018-03-14T23:30:06.594Z,26.37
2018-03-14T23:32:35.662Z,22.55
2018-03-14T23:35:04.730Z,31.27
2018-03-14T23:37:33.926Z,26.42
2018-03-14T23:40:03.086Z,18.35
2018-03-14T23:42:32.223Z,21.12
2018-03-14T23:45:02.063Z,24.80
2018-03-14T23:47:31.907Z,25.80
2018-03-14T23:50:01.035Z,26.62
2018-03-14T23:52:30.134Z,24.37
2018-03-14T23:54:59.234Z,22.45
2018-03-14T23:57:29.202Z,22.37
2018-03-14T23:59:58.302Z,25.58
